sensor_id;sensor_type;location;lat;lon;timestamp;P1;durP1;ratioP1;P2;durP2;ratioP2
22417;SDS011;11376;50.932;4.442;2023-07-31T00:00:24;17.35;;;3.90;;
22417;SDS011;11376;50.932;4.442;2023-07-31T00:02:51;16.15;;;3.63;;
22417;SDS011;11376;50.932;4.442;2023-07-31T00:05:17;17.15;;;4.13;;
22417;SDS011;11376;50.932;4.442;2023-07-31T00:07:43;13.50;;;3.88;;
22417;SDS011;11376;50.932;4.442;2023-07-31T00:10:09;12.13;;;3.38;;
22417;SDS011;11376;50.932;4.442;2023-07-31T00:12:35;18.45;;;3.55;;
22417;SDS011;11376;50.932;4.442;2023-07-31T00:15:00;11.40;;;2.55;;
22417;SDS011;11376;50.932;4.442;2023-07-31T00:17:27;16.83;;;4.45;;
22417;SDS011;11376;50.932;4.442;2023-07-31T00:19:53;17.42;;;4.53;;
22417;SDS011;11376;50.932;4.442;2023-07-31T00:22:18;25.65;;;4.43;;
22417;SDS011;11376;50.932;4.442;2023-07-31T00:24:44;15.27;;;3.65;;
22417;SDS011;11376;50.932;4.442;2023-07-31T00:27:09;18.08;;;4.47;;
22417;SDS011;11376;50.932;4.442;2023-07-31T00:29:35;10.82;;;3.35;;
22417;SDS011;11376;50.932;4.442;2023-07-31T00:32:01;14.90;;;4.18;;
22417;SDS011;11376;50.932;4.442;2023-07-31T00:34:26;17.65;;;3.95;;
22417;SDS011;11376;50.932;4.442;2023-07-31T00:36:52;12.57;;;3.67;;
22417;SDS011;11376;50.932;4.442;2023-07-31T00:39:17;15.30;;;4.40;;
22417;SDS011;11376;50.932;4.442;2023-07-31T00:41:43;15.35;;;3.47;;
22417;SDS011;11376;50.932;4.442;2023-07-31T00:44:09;15.48;;;4.57;;
22417;SDS011;11376;50.932;4.442;2023-07-31T00:46:35;12.55;;;3.85;;
22417;SDS011;11376;50.932;4.442;2023-07-31T00:49:00;21.67;;;5.15;;
22417;SDS011;11376;50.932;4.442;2023-07-31T00:51:26;19.17;;;4.60;;
22417;SDS011;11376;50.932;4.442;2023-07-31T00:53:52;11.50;;;4.35;;
22417;SDS011;11376;50.932;4.442;2023-07-31T00:56:19;15.43;;;4.68;;
22417;SDS011;11376;50.932;4.442;2023-07-31T00:58:45;13.85;;;3.75;;
22417;SDS011;11376;50.932;4.442;2023-07-31T01:01:10;15.35;;;4.47;;
22417;SDS011;11376;50.932;4.442;2023-07-31T01:03:36;17.00;;;4.13;;
22417;SDS011;11376;50.932;4.442;2023-07-31T01:08:44;17.60;;;4.28;;
22417;SDS011;11376;50.932;4.442;2023-07-31T01:11:43;13.75;;;4.20;;
22417;SDS011;11376;50.932;4.442;2023-07-31T01:14:31;16.58;;;5.25;;
22417;SDS011;11376;50.932;4.442;2023-07-31T01:16:57;15.25;;;4.40;;
22417;SDS011;11376;50.932;4.442;2023-07-31T01:19:23;14.68;;;3.35;;
22417;SDS011;11376;50.932;4.442;2023-07-31T01:22:11;19.45;;;4.45;;
22417;SDS011;11376;50.932;4.442;2023-07-31T01:27:58;19.52;;;4.75;;
22417;SDS011;11376;50.932;4.442;2023-07-31T01:30:31;16.83;;;4.45;;
22417;SDS011;11376;50.932;4.442;2023-07-31T01:33:00;13.15;;;4.15;;
22417;SDS011;11376;50.932;4.442;2023-07-31T01:35:31;17.73;;;4.10;;
22417;SDS011;11376;50.932;4.442;2023-07-31T01:37:58;17.20;;;4.50;;
22417;SDS011;11376;50.932;4.442;2023-07-31T01:40:24;13.05;;;3.67;;
22417;SDS011;11376;50.932;4.442;2023-07-31T01:42:50;11.85;;;4.10;;
22417;SDS011;11376;50.932;4.442;2023-07-31T01:45:15;14.25;;;3.80;;
22417;SDS011;11376;50.932;4.442;2023-07-31T01:47:41;8.65;;;2.35;;
22417;SDS011;11376;50.932;4.442;2023-07-31T01:50:07;13.32;;;4.25;;
22417;SDS011;11376;50.932;4.442;2023-07-31T01:52:33;10.55;;;3.40;;
22417;SDS011;11376;50.932;4.442;2023-07-31T01:54:58;12.73;;;3.30;;
22417;SDS011;11376;50.932;4.442;2023-07-31T01:57:24;12.48;;;3.45;;
22417;SDS011;11376;50.932;4.442;2023-07-31T01:59:50;10.30;;;3.30;;
22417;SDS011;11376;50.932;4.442;2023-07-31T02:02:18;14.38;;;3.70;;
22417;SDS011;11376;50.932;4.442;2023-07-31T02:04:45;14.45;;;3.97;;
22417;SDS011;11376;50.932;4.442;2023-07-31T02:07:11;9.43;;;2.60;;
22417;SDS011;11376;50.932;4.442;2023-07-31T02:09:38;12.85;;;4.05;;
22417;SDS011;11376;50.932;4.442;2023-07-31T02:12:04;12.93;;;3.40;;
22417;SDS011;11376;50.932;4.442;2023-07-31T02:14:30;14.65;;;4.10;;
22417;SDS011;11376;50.932;4.442;2023-07-31T02:16:56;10.73;;;3.75;;
22417;SDS011;11376;50.932;4.442;2023-07-31T02:19:22;16.42;;;3.67;;
22417;SDS011;11376;50.932;4.442;2023-07-31T02:21:47;6.18;;;2.53;;
22417;SDS011;11376;50.932;4.442;2023-07-31T02:24:13;12.77;;;3.55;;
22417;SDS011;11376;50.932;4.442;2023-07-31T02:26:39;12.18;;;3.75;;
22417;SDS011;11376;50.932;4.442;2023-07-31T02:29:05;7.80;;;3.90;;
22417;SDS011;11376;50.932;4.442;2023-07-31T02:31:30;8.32;;;3.08;;
22417;SDS011;11376;50.932;4.442;2023-07-31T02:33:56;13.75;;;3.85;;
22417;SDS011;11376;50.932;4.442;2023-07-31T02:36:22;10.77;;;4.00;;
22417;SDS011;11376;50.932;4.442;2023-07-31T02:38:47;11.32;;;4.60;;
22417;SDS011;11376;50.932;4.442;2023-07-31T02:41:13;15.95;;;4.80;;
22417;SDS011;11376;50.932;4.442;2023-07-31T02:43:39;13.07;;;4.25;;
22417;SDS011;11376;50.932;4.442;2023-07-31T02:46:05;13.10;;;4.65;;
22417;SDS011;11376;50.932;4.442;2023-07-31T02:48:30;9.90;;;3.53;;
22417;SDS011;11376;50.932;4.442;2023-07-31T02:50:56;14.77;;;5.07;;
22417;SDS011;11376;50.932;4.442;2023-07-31T02:53:22;9.93;;;3.95;;
22417;SDS011;11376;50.932;4.442;2023-07-31T02:55:48;12.85;;;4.63;;
22417;SDS011;11376;50.932;4.442;2023-07-31T02:58:13;11.88;;;4.55;;
22417;SDS011;11376;50.932;4.442;2023-07-31T03:00:43;10.65;;;3.88;;
22417;SDS011;11376;50.932;4.442;2023-07-31T03:03:09;11.35;;;4.03;;
22417;SDS011;11376;50.932;4.442;2023-07-31T03:05:35;8.05;;;2.75;;
22417;SDS011;11376;50.932;4.442;2023-07-31T03:08:01;10.93;;;3.97;;
22417;SDS011;11376;50.932;4.442;2023-07-31T03:10:26;7.45;;;3.33;;
22417;SDS011;11376;50.932;4.442;2023-07-31T03:12:52;10.45;;;3.35;;
22417;SDS011;11376;50.932;4.442;2023-07-31T03:15:18;12.10;;;3.78;;
22417;SDS011;11376;50.932;4.442;2023-07-31T03:17:43;10.75;;;4.22;;
22417;SDS011;11376;50.932;4.442;2023-07-31T03:20:09;10.32;;;3.13;;
22417;SDS011;11376;50.932;4.442;2023-07-31T03:22:35;9.25;;;3.67;;
22417;SDS011;11376;50.932;4.442;2023-07-31T03:25:02;11.30;;;4.97;;
22417;SDS011;11376;50.932;4.442;2023-07-31T03:27:28;13.20;;;4.97;;
22417;SDS011;11376;50.932;4.442;2023-07-31T03:29:53;13.68;;;5.47;;
22417;SDS011;11376;50.932;4.442;2023-07-31T03:32:19;8.10;;;3.90;;
22417;SDS011;11376;50.932;4.442;2023-07-31T03:34:45;10.18;;;4.55;;
22417;SDS011;11376;50.932;4.442;2023-07-31T03:37:11;9.85;;;3.58;;
22417;SDS011;11376;50.932;4.442;2023-07-31T03:39:36;15.13;;;4.80;;
22417;SDS011;11376;50.932;4.442;2023-07-31T03:42:02;11.20;;;4.72;;
22417;SDS011;11376;50.932;4.442;2023-07-31T03:44:28;10.68;;;4.53;;
22417;SDS011;11376;50.932;4.442;2023-07-31T03:46:53;10.05;;;4.00;;
22417;SDS011;11376;50.932;4.442;2023-07-31T03:49:19;9.85;;;4.15;;
22417;SDS011;11376;50.932;4.442;2023-07-31T03:51:45;8.80;;;3.47;;
22417;SDS011;11376;50.932;4.442;2023-07-31T03:54:11;10.07;;;4.35;;
22417;SDS011;11376;50.932;4.442;2023-07-31T03:56:38;13.50;;;4.85;;
22417;SDS011;11376;50.932;4.442;2023-07-31T03:59:03;13.23;;;5.20;;
22417;SDS011;11376;50.932;4.442;2023-07-31T04:01:29;9.50;;;3.70;;
22417;SDS011;11376;50.932;4.442;2023-07-31T04:03:55;10.77;;;4.47;;
22417;SDS011;11376;50.932;4.442;2023-07-31T04:06:20;11.93;;;5.43;;
22417;SDS011;11376;50.932;4.442;2023-07-31T04:08:46;10.18;;;4.70;;
22417;SDS011;11376;50.932;4.442;2023-07-31T04:11:12;13.15;;;4.95;;
22417;SDS011;11376;50.932;4.442;2023-07-31T04:13:38;11.85;;;4.90;;
22417;SDS011;11376;50.932;4.442;2023-07-31T04:16:03;11.82;;;5.32;;
22417;SDS011;11376;50.932;4.442;2023-07-31T04:18:31;15.38;;;5.32;;
22417;SDS011;11376;50.932;4.442;2023-07-31T04:20:57;11.90;;;5.22;;
22417;SDS011;11376;50.932;4.442;2023-07-31T04:23:23;6.72;;;2.35;;
22417;SDS011;11376;50.932;4.442;2023-07-31T04:25:50;9.55;;;4.35;;
22417;SDS011;11376;50.932;4.442;2023-07-31T04:28:15;14.65;;;5.07;;
22417;SDS011;11376;50.932;4.442;2023-07-31T04:30:41;8.70;;;3.20;;
22417;SDS011;11376;50.932;4.442;2023-07-31T04:33:07;11.32;;;4.50;;
22417;SDS011;11376;50.932;4.442;2023-07-31T04:35:33;11.10;;;3.60;;
22417;SDS011;11376;50.932;4.442;2023-07-31T04:37:58;13.85;;;4.30;;
22417;SDS011;11376;50.932;4.442;2023-07-31T04:40:24;10.18;;;4.45;;
22417;SDS011;11376;50.932;4.442;2023-07-31T04:42:49;12.77;;;4.75;;
22417;SDS011;11376;50.932;4.442;2023-07-31T04:45:15;9.07;;;4.03;;
22417;SDS011;11376;50.932;4.442;2023-07-31T04:47:41;11.02;;;3.95;;
22417;SDS011;11376;50.932;4.442;2023-07-31T04:50:07;9.75;;;4.20;;
22417;SDS011;11376;50.932;4.442;2023-07-31T04:52:33;10.30;;;3.88;;
22417;SDS011;11376;50.932;4.442;2023-07-31T04:54:58;13.98;;;3.80;;
22417;SDS011;11376;50.932;4.442;2023-07-31T04:57:24;9.63;;;3.70;;
22417;SDS011;11376;50.932;4.442;2023-07-31T04:59:50;12.70;;;4.45;;
22417;SDS011;11376;50.932;4.442;2023-07-31T05:02:15;10.25;;;3.08;;
22417;SDS011;11376;50.932;4.442;2023-07-31T05:04:41;6.97;;;3.10;;
22417;SDS011;11376;50.932;4.442;2023-07-31T05:07:07;12.43;;;4.70;;
22417;SDS011;11376;50.932;4.442;2023-07-31T05:09:32;6.63;;;3.05;;
22417;SDS011;11376;50.932;4.442;2023-07-31T05:11:58;9.80;;;3.17;;
22417;SDS011;11376;50.932;4.442;2023-07-31T05:14:25;11.77;;;4.45;;
22417;SDS011;11376;50.932;4.442;2023-07-31T05:16:51;9.63;;;3.15;;
22417;SDS011;11376;50.932;4.442;2023-07-31T05:19:17;9.60;;;4.15;;
22417;SDS011;11376;50.932;4.442;2023-07-31T05:21:43;7.20;;;3.17;;
22417;SDS011;11376;50.932;4.442;2023-07-31T05:24:09;10.32;;;4.35;;
22417;SDS011;11376;50.932;4.442;2023-07-31T05:26:35;10.88;;;4.35;;
22417;SDS011;11376;50.932;4.442;2023-07-31T05:29:01;11.25;;;4.00;;
22417;SDS011;11376;50.932;4.442;2023-07-31T05:31:27;8.82;;;3.83;;
22417;SDS011;11376;50.932;4.442;2023-07-31T05:33:53;9.65;;;4.38;;
22417;SDS011;11376;50.932;4.442;2023-07-31T05:36:18;9.80;;;3.95;;
22417;SDS011;11376;50.932;4.442;2023-07-31T05:38:44;12.02;;;4.30;;
22417;SDS011;11376;50.932;4.442;2023-07-31T05:41:13;11.88;;;4.03;;
22417;SDS011;11376;50.932;4.442;2023-07-31T05:43:39;7.07;;;2.85;;
22417;SDS011;11376;50.932;4.442;2023-07-31T05:46:05;12.85;;;4.00;;
22417;SDS011;11376;50.932;4.442;2023-07-31T05:48:32;12.73;;;4.47;;
22417;SDS011;11376;50.932;4.442;2023-07-31T05:50:59;9.13;;;3.92;;
22417;SDS011;11376;50.932;4.442;2023-07-31T05:53:25;13.90;;;3.80;;
22417;SDS011;11376;50.932;4.442;2023-07-31T05:55:51;8.10;;;3.15;;
22417;SDS011;11376;50.932;4.442;2023-07-31T05:58:16;11.38;;;3.70;;
22417;SDS011;11376;50.932;4.442;2023-07-31T06:00:42;12.85;;;4.10;;
22417;SDS011;11376;50.932;4.442;2023-07-31T06:03:08;6.70;;;2.45;;
22417;SDS011;11376;50.932;4.442;2023-07-31T06:05:33;12.02;;;3.70;;
22417;SDS011;11376;50.932;4.442;2023-07-31T06:07:59;9.85;;;2.85;;
22417;SDS011;11376;50.932;4.442;2023-07-31T06:10:25;10.57;;;3.28;;
22417;SDS011;11376;50.932;4.442;2023-07-31T06:12:51;8.80;;;3.42;;
22417;SDS011;11376;50.932;4.442;2023-07-31T06:15:17;10.68;;;3.70;;
22417;SDS011;11376;50.932;4.442;2023-07-31T06:17:44;8.20;;;2.95;;
22417;SDS011;11376;50.932;4.442;2023-07-31T06:20:10;8.05;;;3.53;;
22417;SDS011;11376;50.932;4.442;2023-07-31T06:22:36;8.98;;;3.72;;
22417;SDS011;11376;50.932;4.442;2023-07-31T06:25:01;8.50;;;2.80;;
22417;SDS011;11376;50.932;4.442;2023-07-31T06:27:27;8.23;;;2.70;;
22417;SDS011;11376;50.932;4.442;2023-07-31T06:29:53;11.57;;;3.15;;
22417;SDS011;11376;50.932;4.442;2023-07-31T06:32:19;10.65;;;4.03;;
22417;SDS011;11376;50.932;4.442;2023-07-31T06:34:45;7.53;;;2.58;;
22417;SDS011;11376;50.932;4.442;2023-07-31T06:37:10;8.45;;;3.50;;
22417;SDS011;11376;50.932;4.442;2023-07-31T06:39:36;10.93;;;3.33;;
22417;SDS011;11376;50.932;4.442;2023-07-31T06:42:02;7.95;;;2.90;;
22417;SDS011;11376;50.932;4.442;2023-07-31T06:44:28;6.47;;;2.38;;
22417;SDS011;11376;50.932;4.442;2023-07-31T06:46:54;12.90;;;3.90;;
22417;SDS011;11376;50.932;4.442;2023-07-31T06:49:19;10.90;;;3.55;;
22417;SDS011;11376;50.932;4.442;2023-07-31T06:51:45;9.48;;;3.13;;
22417;SDS011;11376;50.932;4.442;2023-07-31T06:54:10;9.43;;;3.00;;
22417;SDS011;11376;50.932;4.442;2023-07-31T06:56:36;6.07;;;2.70;;
22417;SDS011;11376;50.932;4.442;2023-07-31T06:59:03;12.35;;;2.80;;
22417;SDS011;11376;50.932;4.442;2023-07-31T07:01:28;9.35;;;2.33;;
22417;SDS011;11376;50.932;4.442;2023-07-31T07:03:54;6.28;;;1.13;;
22417;SDS011;11376;50.932;4.442;2023-07-31T07:06:21;8.57;;;2.38;;
22417;SDS011;11376;50.932;4.442;2023-07-31T07:08:47;9.50;;;2.70;;
22417;SDS011;11376;50.932;4.442;2023-07-31T07:11:13;8.18;;;2.83;;
22417;SDS011;11376;50.932;4.442;2023-07-31T07:13:39;8.73;;;2.65;;
22417;SDS011;11376;50.932;4.442;2023-07-31T07:16:04;6.78;;;2.03;;
22417;SDS011;11376;50.932;4.442;2023-07-31T07:18:30;6.80;;;2.17;;
22417;SDS011;11376;50.932;4.442;2023-07-31T07:20:56;5.68;;;2.30;;
22417;SDS011;11376;50.932;4.442;2023-07-31T07:23:23;8.70;;;2.10;;
22417;SDS011;11376;50.932;4.442;2023-07-31T07:25:49;8.52;;;2.63;;
22417;SDS011;11376;50.932;4.442;2023-07-31T07:28:16;7.53;;;2.00;;
22417;SDS011;11376;50.932;4.442;2023-07-31T07:30:41;8.93;;;2.72;;
22417;SDS011;11376;50.932;4.442;2023-07-31T07:33:07;8.15;;;3.03;;
22417;SDS011;11376;50.932;4.442;2023-07-31T07:35:33;6.05;;;1.90;;
22417;SDS011;11376;50.932;4.442;2023-07-31T07:37:59;6.10;;;2.70;;
22417;SDS011;11376;50.932;4.442;2023-07-31T07:40:26;7.60;;;2.83;;
22417;SDS011;11376;50.932;4.442;2023-07-31T07:42:52;6.60;;;1.90;;
22417;SDS011;11376;50.932;4.442;2023-07-31T07:45:17;6.03;;;1.80;;
22417;SDS011;11376;50.932;4.442;2023-07-31T07:47:43;9.05;;;2.53;;
22417;SDS011;11376;50.932;4.442;2023-07-31T07:50:09;7.85;;;2.35;;
22417;SDS011;11376;50.932;4.442;2023-07-31T07:52:34;6.28;;;1.73;;
22417;SDS011;11376;50.932;4.442;2023-07-31T07:55:00;6.30;;;2.53;;
22417;SDS011;11376;50.932;4.442;2023-07-31T07:57:26;8.55;;;2.25;;
22417;SDS011;11376;50.932;4.442;2023-07-31T07:59:52;4.93;;;1.75;;
22417;SDS011;11376;50.932;4.442;2023-07-31T08:02:18;8.68;;;2.05;;
22417;SDS011;11376;50.932;4.442;2023-07-31T08:04:43;6.32;;;2.40;;
22417;SDS011;11376;50.932;4.442;2023-07-31T08:07:12;8.75;;;2.33;;
22417;SDS011;11376;50.932;4.442;2023-07-31T08:09:38;4.85;;;1.85;;
22417;SDS011;11376;50.932;4.442;2023-07-31T08:12:04;6.38;;;2.08;;
22417;SDS011;11376;50.932;4.442;2023-07-31T08:14:30;5.15;;;2.20;;
22417;SDS011;11376;50.932;4.442;2023-07-31T08:16:56;5.68;;;1.88;;
22417;SDS011;11376;50.932;4.442;2023-07-31T08:19:22;6.65;;;2.13;;
22417;SDS011;11376;50.932;4.442;2023-07-31T08:21:47;7.15;;;2.40;;
22417;SDS011;11376;50.932;4.442;2023-07-31T08:24:13;5.57;;;1.83;;
22417;SDS011;11376;50.932;4.442;2023-07-31T08:26:39;6.68;;;2.03;;
22417;SDS011;11376;50.932;4.442;2023-07-31T08:29:05;5.63;;;1.92;;
22417;SDS011;11376;50.932;4.442;2023-07-31T08:31:31;7.20;;;2.00;;
22417;SDS011;11376;50.932;4.442;2023-07-31T08:33:56;6.68;;;1.52;;
22417;SDS011;11376;50.932;4.442;2023-07-31T08:36:22;4.20;;;1.52;;
22417;SDS011;11376;50.932;4.442;2023-07-31T08:38:48;7.82;;;2.15;;
22417;SDS011;11376;50.932;4.442;2023-07-31T08:41:15;4.80;;;1.98;;
22417;SDS011;11376;50.932;4.442;2023-07-31T08:43:42;5.18;;;2.00;;
22417;SDS011;11376;50.932;4.442;2023-07-31T08:46:10;6.45;;;2.47;;
22417;SDS011;11376;50.932;4.442;2023-07-31T08:48:36;6.85;;;1.85;;
22417;SDS011;11376;50.932;4.442;2023-07-31T08:51:03;4.70;;;2.15;;
22417;SDS011;11376;50.932;4.442;2023-07-31T08:53:29;6.95;;;2.25;;
22417;SDS011;11376;50.932;4.442;2023-07-31T08:55:55;5.18;;;1.40;;
22417;SDS011;11376;50.932;4.442;2023-07-31T08:58:23;6.65;;;2.28;;
22417;SDS011;11376;50.932;4.442;2023-07-31T09:00:50;7.40;;;2.00;;
22417;SDS011;11376;50.932;4.442;2023-07-31T09:03:17;6.30;;;2.63;;
22417;SDS011;11376;50.932;4.442;2023-07-31T09:05:46;7.18;;;2.50;;
22417;SDS011;11376;50.932;4.442;2023-07-31T09:08:13;8.70;;;2.63;;
22417;SDS011;11376;50.932;4.442;2023-07-31T09:10:43;7.22;;;2.05;;
22417;SDS011;11376;50.932;4.442;2023-07-31T09:13:11;6.82;;;2.05;;
22417;SDS011;11376;50.932;4.442;2023-07-31T09:15:37;6.15;;;2.28;;
22417;SDS011;11376;50.932;4.442;2023-07-31T09:18:04;8.75;;;3.17;;
22417;SDS011;11376;50.932;4.442;2023-07-31T09:20:31;5.22;;;2.00;;
22417;SDS011;11376;50.932;4.442;2023-07-31T09:23:05;7.13;;;1.85;;
22417;SDS011;11376;50.932;4.442;2023-07-31T09:25:31;6.53;;;2.17;;
22417;SDS011;11376;50.932;4.442;2023-07-31T09:27:57;7.53;;;2.67;;
22417;SDS011;11376;50.932;4.442;2023-07-31T09:30:31;6.90;;;3.00;;
22417;SDS011;11376;50.932;4.442;2023-07-31T09:33:09;7.63;;;2.28;;
22417;SDS011;11376;50.932;4.442;2023-07-31T09:35:35;6.47;;;2.28;;
22417;SDS011;11376;50.932;4.442;2023-07-31T09:38:09;7.50;;;2.47;;
22417;SDS011;11376;50.932;4.442;2023-07-31T09:40:37;3.60;;;1.55;;
22417;SDS011;11376;50.932;4.442;2023-07-31T09:43:05;9.13;;;2.33;;
22417;SDS011;11376;50.932;4.442;2023-07-31T09:45:39;7.10;;;2.28;;
22417;SDS011;11376;50.932;4.442;2023-07-31T09:48:09;6.90;;;2.20;;
22417;SDS011;11376;50.932;4.442;2023-07-31T09:50:38;7.28;;;2.53;;
22417;SDS011;11376;50.932;4.442;2023-07-31T09:53:06;7.03;;;2.00;;
22417;SDS011;11376;50.932;4.442;2023-07-31T09:55:33;6.40;;;2.40;;
22417;SDS011;11376;50.932;4.442;2023-07-31T09:58:07;6.28;;;2.75;;
22417;SDS011;11376;50.932;4.442;2023-07-31T10:00:34;5.55;;;2.28;;
22417;SDS011;11376;50.932;4.442;2023-07-31T10:03:01;7.68;;;3.42;;
22417;SDS011;11376;50.932;4.442;2023-07-31T10:05:31;6.32;;;3.17;;
22417;SDS011;11376;50.932;4.442;2023-07-31T10:08:01;6.20;;;2.80;;
22417;SDS011;11376;50.932;4.442;2023-07-31T10:10:27;9.30;;;3.40;;
22417;SDS011;11376;50.932;4.442;2023-07-31T10:12:53;12.02;;;4.00;;
22417;SDS011;11376;50.932;4.442;2023-07-31T10:15:19;9.50;;;3.80;;
22417;SDS011;11376;50.932;4.442;2023-07-31T10:17:49;11.38;;;3.90;;
22417;SDS011;11376;50.932;4.442;2023-07-31T10:20:15;11.20;;;4.07;;
22417;SDS011;11376;50.932;4.442;2023-07-31T10:22:45;8.88;;;4.03;;
22417;SDS011;11376;50.932;4.442;2023-07-31T10:25:11;9.75;;;4.05;;
22417;SDS011;11376;50.932;4.442;2023-07-31T10:27:38;6.53;;;2.75;;
22417;SDS011;11376;50.932;4.442;2023-07-31T10:30:05;9.80;;;3.65;;
22417;SDS011;11376;50.932;4.442;2023-07-31T10:32:39;8.18;;;3.08;;
22417;SDS011;11376;50.932;4.442;2023-07-31T10:35:07;8.75;;;3.70;;
22417;SDS011;11376;50.932;4.442;2023-07-31T10:37:40;9.70;;;3.15;;
22417;SDS011;11376;50.932;4.442;2023-07-31T10:42:46;10.68;;;3.80;;
22417;SDS011;11376;50.932;4.442;2023-07-31T10:45:24;6.90;;;3.75;;
22417;SDS011;11376;50.932;4.442;2023-07-31T10:47:57;7.35;;;2.58;;
22417;SDS011;11376;50.932;4.442;2023-07-31T10:50:28;9.48;;;3.72;;
22417;SDS011;11376;50.932;4.442;2023-07-31T10:52:55;8.93;;;3.25;;
22417;SDS011;11376;50.932;4.442;2023-07-31T10:55:41;9.00;;;3.90;;
22417;SDS011;11376;50.932;4.442;2023-07-31T10:58:12;11.25;;;3.38;;
22417;SDS011;11376;50.932;4.442;2023-07-31T11:00:41;5.80;;;2.75;;
22417;SDS011;11376;50.932;4.442;2023-07-31T11:03:09;8.32;;;3.42;;
22417;SDS011;11376;50.932;4.442;2023-07-31T11:08:13;9.63;;;3.92;;
22417;SDS011;11376;50.932;4.442;2023-07-31T11:10:39;10.55;;;3.67;;
22417;SDS011;11376;50.932;4.442;2023-07-31T11:13:05;8.15;;;2.88;;
22417;SDS011;11376;50.932;4.442;2023-07-31T11:15:31;6.75;;;3.00;;
22417;SDS011;11376;50.932;4.442;2023-07-31T11:17:57;8.77;;;3.60;;
22417;SDS011;11376;50.932;4.442;2023-07-31T11:20:24;10.27;;;3.30;;
22417;SDS011;11376;50.932;4.442;2023-07-31T11:22:49;7.32;;;2.88;;
22417;SDS011;11376;50.932;4.442;2023-07-31T11:25:15;6.82;;;3.10;;
22417;SDS011;11376;50.932;4.442;2023-07-31T11:27:42;11.63;;;3.50;;
22417;SDS011;11376;50.932;4.442;2023-07-31T11:30:09;9.60;;;3.33;;
22417;SDS011;11376;50.932;4.442;2023-07-31T11:32:38;9.07;;;3.72;;
22417;SDS011;11376;50.932;4.442;2023-07-31T11:35:05;6.13;;;2.50;;
22417;SDS011;11376;50.932;4.442;2023-07-31T11:37:43;7.30;;;2.17;;
22417;SDS011;11376;50.932;4.442;2023-07-31T11:40:09;9.65;;;2.83;;
22417;SDS011;11376;50.932;4.442;2023-07-31T11:42:35;8.98;;;3.38;;
22417;SDS011;11376;50.932;4.442;2023-07-31T11:45:05;10.57;;;3.65;;
22417;SDS011;11376;50.932;4.442;2023-07-31T11:47:34;6.05;;;2.25;;
22417;SDS011;11376;50.932;4.442;2023-07-31T11:50:05;10.48;;;4.18;;
22417;SDS011;11376;50.932;4.442;2023-07-31T11:52:39;6.38;;;2.80;;
22417;SDS011;11376;50.932;4.442;2023-07-31T11:55:08;9.10;;;3.47;;
22417;SDS011;11376;50.932;4.442;2023-07-31T11:57:40;8.88;;;3.60;;
22417;SDS011;11376;50.932;4.442;2023-07-31T12:00:09;9.80;;;2.83;;
22417;SDS011;11376;50.932;4.442;2023-07-31T12:02:36;10.07;;;4.00;;
22417;SDS011;11376;50.932;4.442;2023-07-31T12:05:05;12.32;;;3.80;;
22417;SDS011;11376;50.932;4.442;2023-07-31T12:07:45;9.32;;;3.33;;
22417;SDS011;11376;50.932;4.442;2023-07-31T12:10:11;7.72;;;3.08;;
22417;SDS011;11376;50.932;4.442;2023-07-31T12:12:55;9.02;;;2.70;;
22417;SDS011;11376;50.932;4.442;2023-07-31T12:15:38;8.02;;;2.75;;
22417;SDS011;11376;50.932;4.442;2023-07-31T12:18:09;11.95;;;3.72;;
22417;SDS011;11376;50.932;4.442;2023-07-31T12:20:43;12.18;;;3.53;;
22417;SDS011;11376;50.932;4.442;2023-07-31T12:23:23;9.20;;;2.83;;
22417;SDS011;11376;50.932;4.442;2023-07-31T12:28:26;8.52;;;2.97;;
22417;SDS011;11376;50.932;4.442;2023-07-31T12:30:52;8.95;;;3.40;;
22417;SDS011;11376;50.932;4.442;2023-07-31T12:33:23;9.68;;;4.00;;
22417;SDS011;11376;50.932;4.442;2023-07-31T12:35:48;8.02;;;2.65;;
22417;SDS011;11376;50.932;4.442;2023-07-31T12:38:14;6.97;;;2.38;;
22417;SDS011;11376;50.932;4.442;2023-07-31T12:40:40;9.40;;;3.80;;
22417;SDS011;11376;50.932;4.442;2023-07-31T12:43:07;8.23;;;3.10;;
22417;SDS011;11376;50.932;4.442;2023-07-31T12:45:33;5.82;;;3.22;;
22417;SDS011;11376;50.932;4.442;2023-07-31T12:47:59;11.50;;;3.38;;
22417;SDS011;11376;50.932;4.442;2023-07-31T12:50:26;8.70;;;2.75;;
22417;SDS011;11376;50.932;4.442;2023-07-31T12:52:56;8.48;;;2.88;;
22417;SDS011;11376;50.932;4.442;2023-07-31T12:55:22;12.15;;;2.92;;
22417;SDS011;11376;50.932;4.442;2023-07-31T12:57:49;10.80;;;3.53;;
22417;SDS011;11376;50.932;4.442;2023-07-31T13:00:15;10.93;;;2.78;;
22417;SDS011;11376;50.932;4.442;2023-07-31T13:02:41;7.93;;;2.95;;
22417;SDS011;11376;50.932;4.442;2023-07-31T13:05:07;9.00;;;2.92;;
22417;SDS011;11376;50.932;4.442;2023-07-31T13:07:33;9.00;;;2.55;;
22417;SDS011;11376;50.932;4.442;2023-07-31T13:09:59;11.38;;;3.47;;
22417;SDS011;11376;50.932;4.442;2023-07-31T13:12:24;10.07;;;3.20;;
22417;SDS011;11376;50.932;4.442;2023-07-31T13:14:50;8.55;;;3.10;;
22417;SDS011;11376;50.932;4.442;2023-07-31T13:17:16;6.30;;;1.95;;
22417;SDS011;11376;50.932;4.442;2023-07-31T13:19:42;7.00;;;2.22;;
22417;SDS011;11376;50.932;4.442;2023-07-31T13:22:08;4.85;;;1.70;;
22417;SDS011;11376;50.932;4.442;2023-07-31T13:24:34;6.45;;;2.08;;
22417;SDS011;11376;50.932;4.442;2023-07-31T13:26:59;4.95;;;1.60;;
22417;SDS011;11376;50.932;4.442;2023-07-31T13:29:25;4.85;;;2.15;;
22417;SDS011;11376;50.932;4.442;2023-07-31T13:31:51;8.73;;;2.58;;
22417;SDS011;11376;50.932;4.442;2023-07-31T13:34:17;7.07;;;2.22;;
22417;SDS011;11376;50.932;4.442;2023-07-31T13:36:43;7.75;;;2.80;;
22417;SDS011;11376;50.932;4.442;2023-07-31T13:39:09;5.03;;;1.73;;
22417;SDS011;11376;50.932;4.442;2023-07-31T13:41:34;8.07;;;2.38;;
22417;SDS011;11376;50.932;4.442;2023-07-31T13:44:00;5.82;;;2.85;;
22417;SDS011;11376;50.932;4.442;2023-07-31T13:46:26;7.90;;;2.65;;
22417;SDS011;11376;50.932;4.442;2023-07-31T13:48:51;12.98;;;2.47;;
22417;SDS011;11376;50.932;4.442;2023-07-31T13:51:21;6.78;;;2.35;;
22417;SDS011;11376;50.932;4.442;2023-07-31T13:53:47;8.00;;;2.83;;
22417;SDS011;11376;50.932;4.442;2023-07-31T13:56:13;6.30;;;2.00;;
22417;SDS011;11376;50.932;4.442;2023-07-31T13:58:39;5.20;;;2.03;;
22417;SDS011;11376;50.932;4.442;2023-07-31T14:01:04;5.90;;;2.17;;
22417;SDS011;11376;50.932;4.442;2023-07-31T14:03:30;6.07;;;1.95;;
22417;SDS011;11376;50.932;4.442;2023-07-31T14:05:56;6.53;;;2.08;;
22417;SDS011;11376;50.932;4.442;2023-07-31T14:08:22;6.95;;;3.08;;
22417;SDS011;11376;50.932;4.442;2023-07-31T14:10:48;11.18;;;3.08;;
22417;SDS011;11376;50.932;4.442;2023-07-31T14:13:13;9.45;;;3.50;;
22417;SDS011;11376;50.932;4.442;2023-07-31T14:15:41;8.52;;;3.15;;
22417;SDS011;11376;50.932;4.442;2023-07-31T14:18:08;7.63;;;3.50;;
22417;SDS011;11376;50.932;4.442;2023-07-31T14:20:33;11.13;;;3.55;;
22417;SDS011;11376;50.932;4.442;2023-07-31T14:22:59;7.78;;;2.88;;
22417;SDS011;11376;50.932;4.442;2023-07-31T14:25:26;10.52;;;3.90;;
22417;SDS011;11376;50.932;4.442;2023-07-31T14:27:51;11.63;;;3.83;;
22417;SDS011;11376;50.932;4.442;2023-07-31T14:30:17;8.32;;;3.30;;
22417;SDS011;11376;50.932;4.442;2023-07-31T14:32:43;9.63;;;3.78;;
22417;SDS011;11376;50.932;4.442;2023-07-31T14:35:09;7.03;;;3.08;;
22417;SDS011;11376;50.932;4.442;2023-07-31T14:37:42;9.73;;;3.92;;
22417;SDS011;11376;50.932;4.442;2023-07-31T14:40:09;7.72;;;2.95;;
22417;SDS011;11376;50.932;4.442;2023-07-31T14:42:37;8.02;;;3.00;;
22417;SDS011;11376;50.932;4.442;2023-07-31T14:45:04;5.18;;;2.40;;
22417;SDS011;11376;50.932;4.442;2023-07-31T14:47:31;8.13;;;3.22;;
22417;SDS011;11376;50.932;4.442;2023-07-31T14:49:57;4.43;;;2.25;;
22417;SDS011;11376;50.932;4.442;2023-07-31T14:52:23;4.78;;;1.88;;
22417;SDS011;11376;50.932;4.442;2023-07-31T14:54:49;5.20;;;2.17;;